Latest Weather Observations for Cooma Airport

IDN60801

Issued at 10:03 pm EST Tuesday 4 August 2020 (issued every 10 minutes, with the page automatically refreshed every 10 minutes)

About weather observations | Map of weather stations | Latest weather observations for NSW | Other Formats
Station Details ID: 070217 Name: COOMA AIRPORT AWS Lat: -36.29 Lon: 148.97 Height: 930.0 m
Data from the previous 72 hours. | See also: Recent months at Cooma Airport
Date/Time
EST
Temp
°C
App
Temp
°C
Dew
Point
°C
Rel
Hum
%
Delta-T
°C
Wind Press
QNH
hPa
Press
MSL
hPa
Rain since
9am
mm
Dir  Spd
km/h
Gust
km/h
Spd
kts
Gust
kts
04/10:00pm 0.6 -6.4 -6.9 57 2.5 W 22 33 12 18 1010.2 1011.2 0.0
04/09:30pm 0.7 -5.6 -5.7 62 2.2 W 19 28 10 15 1010.3 1011.3 0.0
04/09:00pm 1.0 -6.7 -6.3 58 2.5 WNW 26 43 14 23 1010.2 1011.2 0.0
04/08:30pm 1.3 -6.8 -7.2 53 2.8 WNW 28 43 15 23 1009.9 1010.9 0.0
04/08:00pm 0.9 -5.7 -6.6 57 2.5 W 20 33 11 18 1009.9 1010.9 0.0
04/07:30pm 1.1 -6.6 -6.9 55 2.7 W 26 35 14 19 1009.8 1010.8 0.0
04/07:00pm 1.1 -6.3 -6.9 55 2.7 WNW 24 32 13 17 1009.7 1010.6 0.0
04/06:30pm 1.5 -5.9 -7.3 52 2.9 WNW 24 37 13 20 1009.7 1010.6 0.0
04/06:00pm 1.7 -6.8 -7.3 51 3.0 W 30 41 16 22 1009.5 1010.5 0.0
04/05:30pm 2.2 -4.4 -7.1 50 3.2 W 20 35 11 19 1009.2 1010.2 0.0
04/05:00pm 2.8 -5.3 -6.8 49 3.4 W 28 43 15 23 1009.0 1010.0 0.0
04/04:30pm 3.6 -5.0 -7.5 44 3.9 W 30 44 16 24 1008.7 1009.6 0.0
04/04:00pm 4.3 -4.8 -7.2 43 3.9 W 33 44 18 24 1008.2 1009.2 0.0
04/03:30pm 5.7 -2.8 -7.2 39 4.4 W 30 46 16 25 1007.9 1008.9 0.0
04/03:29pm 5.9 -2.2 -6.6 40 4.3 W 28 46 15 25 1007.9 1008.9 0.0
04/03:00pm 5.9 -3.6 -7.7 37 4.6 W 35 50 19 27 1007.8 1008.7 0.0
04/02:30pm 6.6 -2.2 -6.3 39 4.6 W 32 52 17 28 1007.5 1008.4 0.0
04/02:03pm 6.6 -2.3 -5.4 42 4.3 W 33 52 18 28 1007.7 1008.6 0.0
04/02:00pm 6.5 -2.9 -6.1 40 4.5 W 35 52 19 28 1007.7 1008.6 0.0
04/01:36pm 6.6 -4.0 -7.4 36 4.8 W 41 61 22 33 1007.6 1008.5 0.0
04/01:30pm 7.3 -3.1 -5.1 41 4.5 W 41 57 22 31 1007.5 1008.4 0.0
04/01:00pm 7.2 -2.2 -3.1 48 4.0 W 37 57 20 31 1007.1 1008.1 0.0
04/12:30pm 7.8 -0.7 -3.7 44 4.4 W 32 52 17 28 1007.2 1008.2 0.0
04/12:00pm 7.9 -1.7 -4.5 41 4.7 WNW 37 59 20 32 1007.5 1008.4 0.0
04/11:30am 9.0 1.3 -0.3 52 3.9 WNW 30 52 16 28 1007.6 1008.5 0.0
04/11:00am 8.8 0.7 0.0 54 3.7 WNW 32 50 17 27 1007.9 1008.9 0.0
04/10:51am 9.2 1.4 -0.9 49 4.2 WNW 30 50 16 27 1008.0 1009.0 0.0
04/10:30am 9.0 2.0 -0.3 52 3.9 WNW 26 43 14 23 1007.9 1008.9 0.0
04/10:00am 8.7 1.9 0.9 58 3.4 WNW 26 43 14 23 1008.1 1009.1 0.0
04/09:30am 8.0 0.2 1.6 64 2.8 WNW 32 44 17 24 1008.4 1009.4 0.0
04/09:00am 7.9 2.4 2.0 66 2.6 WNW 20 35 11 19 1008.4 1009.4 0.0
04/08:30am 7.5 2.6 2.0 68 2.4 W 17 24 9 13 1008.2 1009.2 0.0
04/08:00am 7.1 2.9 1.4 67 2.4 NW 13 22 7 12 1008.2 1009.2 0.0
04/07:30am 7.0 1.5 0.5 63 2.7 NW 19 37 10 20 1007.8 1008.7 0.0
04/07:00am 6.5 2.1 0.6 66 2.5 NNW 13 28 7 15 1008.3 1009.3 0.0
04/06:30am 7.0 1.9 0.9 65 2.6 NW 17 35 9 19 1008.2 1009.2 0.0
04/06:00am 6.7 1.6 0.8 66 2.5 WNW 17 30 9 16 1008.4 1009.4 0.0
04/05:30am 7.1 0.7 0.8 64 2.7 NW 24 41 13 22 1008.6 1009.5 0.0
04/05:00am 7.3 1.7 1.4 66 2.5 NW 20 35 11 19 1008.9 1009.9 0.0
04/04:30am 7.3 1.4 1.4 66 2.5 NW 22 37 12 20 1009.5 1010.5 0.0
04/04:00am 7.7 1.4 1.5 65 2.7 NW 24 41 13 22 1009.7 1010.6 0.0
04/03:30am 7.0 1.4 1.5 68 2.4 NW 20 28 11 15 1009.4 1010.4 0.0
04/03:00am 4.8 -0.1 1.7 80 1.3 N 17 19 9 10 1010.1 1011.1 0.0
04/02:30am 3.6 -0.3 1.3 85 0.9 N 11 15 6 8 1010.5 1011.5 0.0
04/02:00am 5.4 1.8 2.9 84 1.1 N 11 20 6 11 1010.9 1011.9 0.0
04/01:30am 4.5 1.6 2.7 88 0.8 NNW 7 9 4 5 1011.1 1012.1 0.0
04/01:00am 3.4 -0.9 0.8 83 1.1 N 13 15 7 8 1011.3 1012.3 0.0
04/12:30am 3.5 -0.7 1.4 86 0.9 N 13 15 7 8 1012.0 1013.0 0.0
04/12:00am 4.4 -0.5 1.8 83 1.1 NE 17 20 9 11 1012.3 1013.3 0.0
 
Date/Time
EST
Temp
°C
App
Temp
°C
Dew
Point
°C
Rel
Hum
%
Delta-T
°C
Wind Press
QNH
hPa
Press
MSL
hPa
Rain since
9am
mm
Dir  Spd
km/h
Gust
km/h
Spd
kts
Gust
kts
03/11:30pm 4.9 -0.6 1.9 81 1.3 NE 20 24 11 13 1012.6 1013.7 0.0
03/11:00pm 5.3 -0.5 2.1 80 1.4 NNE 22 26 12 14 1012.8 1013.9 0.0
03/10:30pm 5.4 -0.5 1.9 78 1.5 NNE 22 28 12 15 1013.0 1014.1 0.0
03/10:00pm 5.2 -0.2 1.5 77 1.6 N 19 22 10 12 1013.3 1014.3 0.0
03/09:30pm 6.2 1.1 0.9 69 2.2 N 17 26 9 14 1013.7 1014.8 0.0
03/09:00pm 6.4 1.7 1.1 69 2.2 N 15 20 8 11 1014.0 1015.1 0.0
03/08:30pm 5.5 1.1 0.5 70 2.1 NNE 13 17 7 9 1014.4 1015.5 0.0
03/08:00pm 7.3 2.1 0.1 60 3.0 N 17 22 9 12 1014.5 1015.6 0.0
03/07:30pm 7.6 2.8 -0.1 58 3.2 NNW 15 22 8 12 1014.4 1015.5 0.0
03/07:00pm 7.8 3.7 -0.2 57 3.3 NNW 11 22 6 12 1014.5 1015.6 0.0
03/06:30pm 8.3 5.1 -0.4 54 3.6 N 6 11 3 6 1014.8 1015.9 0.0
03/06:00pm 8.0 5.2 -0.2 56 3.4 NNW 4 9 2 5 1014.7 1015.8 0.0
03/05:30pm 9.5 5.0 -0.1 51 4.1 NW 13 19 7 10 1014.6 1015.7 0.0
03/05:00pm 10.4 5.2 0.2 49 4.4 NW 17 24 9 13 1014.6 1015.7 0.0
03/04:30pm 11.8 5.6 -0.4 43 5.2 NW 22 28 12 15 1014.5 1015.6 0.0
03/04:00pm 12.4 6.5 -0.8 40 5.7 NW 20 32 11 17 1014.5 1015.6 0.0
03/03:30pm 12.1 6.8 -0.4 42 5.4 NW 17 22 9 12 1014.7 1015.8 0.0
03/03:00pm 12.3 7.5 0.1 43 5.3 NW 15 22 8 12 1014.8 1015.9 0.0
03/02:30pm 13.0 7.1 -0.6 39 5.9 NW 20 30 11 16 1015.0 1016.1 0.0
03/02:00pm 13.2 7.2 -1.2 37 6.2 WNW 20 26 11 14 1014.9 1016.0 0.0
03/01:30pm 13.4 7.5 -1.0 37 6.2 NNW 20 30 11 16 1015.2 1016.4 0.0
03/01:00pm 13.3 6.6 -1.4 36 6.3 NW 24 33 13 18 1015.7 1016.8 0.0
03/12:30pm 13.7 7.2 0.0 39 6.0 NW 24 37 13 20 1016.1 1017.3 0.0
03/12:00pm 13.2 6.7 0.6 42 5.6 NW 24 35 13 19 1016.4 1017.6 0.0
03/11:30am 10.6 6.6 0.3 49 4.4 N 11 20 6 11 1017.0 1018.1 0.0
03/11:00am 5.8 2.0 3.8 87 0.9 ENE 13 17 7 9 1017.8 1018.9 0.0
03/10:30am 3.5 -0.8 3.4 99 0.0 NNE 15 17 8 9 1018.2 1019.4 0.0
03/10:00am 2.7 -0.9 2.7 100 0.0 NNE 11 15 6 8 1018.5 1019.7 0.0
03/09:30am 1.1 -3.6 1.1 100 0.0 NE 15 17 8 9 1018.6 1019.8 0.0
03/09:26am 1.0 -4.1 1.0 100 0.0 NE 17 19 9 10 1018.6 1019.8 0.0
03/09:22am 1.0 -4.1 1.0 100 0.0 NE 17 19 9 10 1018.6 1019.8 0.0
03/09:00am 0.0 -4.8 0.0 100 0.0 NE 15 19 8 10 1018.7 1019.9 0.4
03/08:30am -0.7 -6.0 -0.7 100 0.0 NNE 17 20 9 11 1018.8 1020.1 0.2
03/08:00am -1.0 -6.0 -1.0 100 0.0 NNE 15 20 8 11 1019.0 1020.2 0.2
03/07:30am -1.3 -6.7 -1.3 100 0.0 NNE 17 20 9 11 1019.0 1020.2 0.2
03/07:00am -1.4 -6.8 -1.4 100 0.0 NNE 17 20 9 11 1018.7 1019.9 0.2
03/06:30am -1.5 -6.9 -1.5 100 0.0 NNE 17 19 9 10 1018.7 1019.9 0.2
03/06:00am -1.4 -6.4 -1.4 100 0.0 N 15 17 8 9 1018.6 1019.8 0.2
03/05:30am -1.5 -6.5 -1.5 100 0.0 N 15 15 8 8 1018.6 1019.8 0.2
03/05:00am -1.8 -6.9 -1.9 99 0.0 N 15 15 8 8 1018.6 1019.8 0.2
03/04:30am -1.4 -6.4 -1.5 99 0.0 N 15 17 8 9 1018.8 1020.1 0.2
03/04:00am -1.0 -5.6 -1.1 99 0.0 N 13 15 7 8 1019.0 1020.2 0.2
03/03:40am -0.8 -5.4 -0.9 99 0.0 NNE 13 17 7 9 1019.1 1020.3 0.2
03/03:30am -0.9 -5.1 -1.0 99 0.0 NNE 11 13 6 7 1019.1 1020.3 0.2
03/03:14am -0.5 -4.3 -0.6 99 0.0 NE 9 11 5 6 1019.3 1020.5 0.2
03/03:00am -0.1 -5.0 -0.2 99 0.0 NE 15 17 8 9 1019.5 1020.7 0.2
03/02:30am -0.2 -5.5 -0.3 99 0.0 NNE 17 17 9 9 1019.6 1020.8 0.2
03/02:00am -0.8 -5.4 -1.2 97 0.1 NNE 13 13 7 7 1020.0 1021.3 0.2
03/01:30am -0.6 -4.5 -1.3 95 0.2 NNE 9 11 5 6 1020.4 1021.6 0.2
03/01:00am -0.1 -3.9 -0.5 97 0.1 NNE 9 11 5 6 1020.7 1022.0 0.2
03/12:30am -0.9 -5.2 -2.0 92 0.4 NNE 11 13 6 7 1021.1 1022.4 0.2
03/12:00am -0.6 -4.1 -1.6 93 0.3 NNE 7 11 4 6 1021.5 1022.7 0.2
 
Date/Time
EST
Temp
°C
App
Temp
°C
Dew
Point
°C
Rel
Hum
%
Delta-T
°C
Wind Press
QNH
hPa
Press
MSL
hPa
Rain since
9am
mm
Dir  Spd
km/h
Gust
km/h
Spd
kts
Gust
kts
02/11:30pm -0.5 -4.4 -1.8 91 0.5 NNE 9 9 5 5 1021.8 1023.1 0.2
02/11:00pm -0.6 -4.1 -1.7 92 0.4 N 7 9 4 5 1021.9 1023.2 0.2
02/10:30pm 0.1 -3.3 -0.9 93 0.4 NNE 7 9 4 5 1022.0 1023.3 0.2
02/10:00pm -0.5 -4.4 -1.6 92 0.4 N 9 11 5 6 1022.1 1023.4 0.2
02/09:30pm 0.5 -1.7 -1.3 88 0.7 CALM 0 0 0 0 1022.1 1023.4 0.2
02/09:00pm 1.4 -1.8 -0.8 85 0.8 N 6 7 3 4 1022.3 1023.6 0.2
02/08:30pm 1.6 -0.4 -0.3 87 0.7 CALM 0 0 0 0 1022.3 1023.6 0.2
02/08:00pm 2.2 0.2 -0.4 83 1.0 CALM 0 0 0 0 1022.5 1023.7 0.2
02/07:30pm 3.2 -0.5 0.1 80 1.2 S 9 11 5 6 1022.3 1023.6 0.2
02/07:00pm 4.5 1.3 0.8 77 1.5 NE 7 9 4 5 1022.1 1023.4 0.2
02/06:30pm 4.8 1.2 0.8 75 1.6 NE 9 11 5 6 1022.0 1023.3 0.2
02/06:00pm 6.2 3.1 1.1 70 2.1 NE 7 11 4 6 1022.0 1023.3 0.2
02/05:30pm 7.7 4.0 0.2 59 3.1 NNE 9 9 5 5 1021.9 1023.2 0.2
02/05:00pm 10.1 6.4 0.2 50 4.2 NE 9 13 5 7 1021.8 1023.1 0.2
02/04:30pm 12.5 10.1 -3.3 33 6.4 CALM 0 0 0 0 1021.9 1023.2 0.2
02/04:00pm 12.5 9.9 -4.6 30 6.7 CALM 0 6 0 3 1022.2 1023.5 0.2
02/03:30pm 12.4 8.6 -5.6 28 6.9 SSE 6 7 3 4 1022.2 1023.5 0.2
02/03:00pm 12.8 9.3 -2.6 34 6.3 S 6 9 3 5 1022.1 1023.4 0.2
02/02:30pm 12.6 8.9 -3.2 33 6.4 S 7 11 4 6 1022.3 1023.6 0.2
02/02:00pm 12.2 8.1 -3.2 34 6.2 S 9 13 5 7 1022.5 1023.7 0.2
02/01:30pm 11.8 8.2 -3.5 34 6.1 SSW 6 15 3 8 1022.7 1024.0 0.2
02/01:00pm 11.7 8.0 -3.2 35 6.0 SSW 7 13 4 7 1023.1 1024.4 0.2
02/12:30pm 11.5 7.8 -3.0 36 5.9 SW 7 11 4 6 1023.7 1025.0 0.2
02/12:00pm 10.4 6.8 -4.0 36 5.6 SSE 6 9 3 5 1024.2 1025.5 0.2
02/11:30am 9.3 5.9 -0.8 49 4.2 NE 7 11 4 6 1024.9 1026.2 0.2
02/11:00am 8.1 4.4 -0.1 56 3.4 NE 9 13 5 7 1025.0 1026.3 0.2
02/10:30am 6.5 2.8 0.2 64 2.6 NE 9 13 5 7 1025.1 1026.4 0.0
02/10:00am 5.1 1.5 0.3 71 1.9 NE 9 13 5 7 1025.2 1026.5 0.0
02/09:30am 3.4 -0.7 0.1 79 1.3 NE 11 11 6 6 1025.4 1026.8 0.0
02/09:00am 2.2 -1.4 0.4 88 0.7 NE 9 11 5 6 1025.4 1026.8 0.0
02/08:30am 0.8 -2.5 -0.1 94 0.3 NNE 7 9 4 5 1025.2 1026.5 0.0
02/08:00am -1.4 -4.9 -1.5 99 0.0 N 7 9 4 5 1025.1 1026.4 0.0
02/07:30am -3.7 -7.4 -4.2 96 0.0 NNE 6 7 3 4 1025.0 1026.3 0.0
02/07:00am -4.4 -7.4 -4.9 96 0.0 E 2 7 1 4 1024.8 1026.1 0.0
02/06:30am -3.6 -6.1 -4.3 95 0.1 CALM 0 0 0 0 1024.4 1025.8 0.0
02/06:00am -2.5 -6.3 -3.9 90 0.4 N 7 11 4 6 1024.0 1025.3 0.0
02/05:30am -2.4 -6.1 -3.1 95 0.1 N 7 9 4 5 1023.7 1025.0 0.0
02/05:00am -2.3 -6.4 -3.0 95 0.1 N 9 13 5 7 1023.3 1024.6 0.0
02/04:30am -1.5 -5.5 -2.2 95 0.2 N 9 13 5 7 1023.2 1024.5 0.0
02/04:00am -2.8 -6.9 -3.1 98 0.0 N 9 13 5 7 1023.2 1024.5 0.0
02/03:30am -3.3 -5.8 -4.0 95 0.1 CALM 0 0 0 0 1023.1 1024.4 0.0
02/03:00am -3.3 -7.0 -4.3 93 0.2 N 6 9 3 5 1023.4 1024.8 0.0
02/02:30am -3.3 -5.9 -5.0 88 0.4 CALM 0 0 0 0 1023.7 1025.0 0.0
02/02:00am -2.7 -5.6 -4.1 90 0.3 NE 2 6 1 3 1023.7 1025.0 0.0
02/01:30am -2.4 -6.2 -4.0 89 0.4 NE 7 9 4 5 1023.9 1025.2 0.0
02/01:00am -1.0 -4.1 -3.0 86 0.7 N 4 7 2 4 1024.1 1025.4 0.0
02/12:30am -1.9 -5.7 -3.9 86 0.6 NE 7 9 4 5 1024.1 1025.4 0.0
02/12:00am -0.6 -4.7 -2.8 85 0.8 N 9 13 5 7 1024.2 1025.5 0.0
 
Date/Time
EST
Temp
°C
App
Temp
°C
Dew
Point
°C
Rel
Hum
%
Delta-T
°C
Wind Press
QNH
hPa
Press
MSL
hPa
Rain since
9am
mm
Dir  Spd
km/h
Gust
km/h
Spd
kts
Gust
kts
01/11:30pm -1.6 -5.2 -3.5 87 0.6 NNE 6 9 3 5 1024.1 1025.4 0.0
01/11:00pm -0.8 -4.6 -3.6 81 0.9 NNE 7 9 4 5 1024.0 1025.3 0.0
01/10:30pm -0.3 -4.0 -2.8 83 0.9 NNE 7 9 4 5 1023.9 1025.2 0.0

Other formats

Comma delimited format used in spreadsheet applications
http://www.bom.gov.au/fwo/IDN60801/IDN60801.94921.axf

JavaScript Object Notation format (JSON) in row-major order
http://www.bom.gov.au/fwo/IDN60801/IDN60801.94921.json

Data quality

Most of these data are generated automatically and are frequently updated. Quality checks on data are not normally performed. It is possible for incorrect values to appear. Refer to information at About Latest Weather Observations and please check the disclaimer before using these data.